createdAt,value
2023-10-07T00:01:18.395Z,2.22
2023-10-07T00:03:45.422Z,2.58
2023-10-07T00:06:12.793Z,2.17
2023-10-07T00:08:40.398Z,3.00
2023-10-07T00:11:13.252Z,6.00
2023-10-07T00:13:43.187Z,5.82
2023-10-07T00:16:19.450Z,3.63
2023-10-07T00:18:47.000Z,2.25
2023-10-07T00:21:25.407Z,9.00
2023-10-07T00:23:54.416Z,9.85
2023-10-07T00:26:21.433Z,4.05
2023-10-07T00:29:03.225Z,4.70
2023-10-07T00:31:35.003Z,5.50
2023-10-07T00:34:20.536Z,1.88
2023-10-07T00:36:49.445Z,5.63
2023-10-07T00:39:22.746Z,6.38
2023-10-07T00:41:52.115Z,4.43
2023-10-07T00:44:19.417Z,3.55
2023-10-07T00:47:07.101Z,2.60
2023-10-07T00:50:03.315Z,7.68
2023-10-07T00:52:30.960Z,4.95
2023-10-07T00:55:05.206Z,4.90
2023-10-07T00:57:35.687Z,2.78
2023-10-07T01:00:24.543Z,3.97
2023-10-07T01:02:52.986Z,3.85
2023-10-07T01:05:28.956Z,3.25
2023-10-07T01:07:57.011Z,3.45
2023-10-07T01:10:29.442Z,5.10
2023-10-07T01:13:00.497Z,1.83
2023-10-07T01:15:30.508Z,4.70
2023-10-07T01:17:58.969Z,2.67
2023-10-07T01:20:35.315Z,8.63
2023-10-07T01:23:06.144Z,1.90
2023-10-07T01:25:36.595Z,3.58
2023-10-07T01:28:06.091Z,6.13
2023-10-07T01:30:36.094Z,4.22
2023-10-07T01:33:10.382Z,6.38
2023-10-07T01:35:41.312Z,5.38
2023-10-07T01:38:09.262Z,2.42
2023-10-07T01:40:45.718Z,3.33
2023-10-07T01:43:12.775Z,6.38
2023-10-07T01:45:42.601Z,5.40
2023-10-07T01:48:09.723Z,3.70
2023-10-07T01:50:41.822Z,4.10
2023-10-07T01:53:09.952Z,3.38
2023-10-07T01:55:49.915Z,3.25
2023-10-07T01:58:20.250Z,6.38
2023-10-07T02:00:53.354Z,5.20
2023-10-07T02:03:25.328Z,5.25
2023-10-07T02:05:53.661Z,4.18
2023-10-07T02:08:24.508Z,3.17
2023-10-07T02:10:58.118Z,4.00
2023-10-07T02:13:29.433Z,6.45
2023-10-07T02:15:56.874Z,3.90
2023-10-07T02:18:28.770Z,3.25
2023-10-07T02:21:09.028Z,4.10
2023-10-07T02:23:42.158Z,4.00
2023-10-07T02:26:20.015Z,4.82
2023-10-07T02:28:52.994Z,5.75
2023-10-07T02:31:28.357Z,6.07
2023-10-07T02:33:59.180Z,6.43
2023-10-07T02:36:29.996Z,2.42
2023-10-07T02:39:05.780Z,4.03
2023-10-07T02:41:35.571Z,2.92
2023-10-07T02:44:07.366Z,3.78
2023-10-07T02:46:35.159Z,3.73
2023-10-07T02:49:11.874Z,4.90
2023-10-07T02:51:57.055Z,7.20
2023-10-07T02:54:24.676Z,5.25
2023-10-07T02:56:57.590Z,4.78
2023-10-07T02:59:32.348Z,6.00
2023-10-07T03:02:14.295Z,4.00
2023-10-07T03:04:45.744Z,6.25
2023-10-07T03:07:16.220Z,2.95
2023-10-07T03:09:55.884Z,7.00
2023-10-07T03:12:29.315Z,3.17
2023-10-07T03:15:02.436Z,2.88
2023-10-07T03:17:41.005Z,3.65
2023-10-07T03:20:34.751Z,7.90
2023-10-07T03:23:19.396Z,3.22
2023-10-07T03:26:09.866Z,2.40
2023-10-07T03:28:38.021Z,2.75
2023-10-07T03:31:12.449Z,6.70
2023-10-07T03:33:51.413Z,4.82
2023-10-07T03:36:23.241Z,6.00
2023-10-07T03:39:09.350Z,2.80
2023-10-07T03:41:37.101Z,5.43
2023-10-07T03:44:05.030Z,5.18
2023-10-07T03:46:32.446Z,6.00
2023-10-07T03:48:59.446Z,3.28
2023-10-07T03:51:32.049Z,2.42
2023-10-07T03:56:45.362Z,5.30
2023-10-07T03:59:16.502Z,5.93
2023-10-07T04:01:46.665Z,12.52
2023-10-07T04:04:14.751Z,7.10
2023-10-07T04:06:42.409Z,4.70
2023-10-07T04:09:13.345Z,3.42
2023-10-07T04:11:49.489Z,2.70
2023-10-07T04:14:21.206Z,5.55
2023-10-07T04:16:52.340Z,4.63
2023-10-07T04:19:20.564Z,6.20
2023-10-07T04:21:47.693Z,1.85
2023-10-07T04:24:14.991Z,6.15
2023-10-07T04:26:58.447Z,3.50
2023-10-07T04:29:26.045Z,3.65
2023-10-07T04:31:54.669Z,4.40
2023-10-07T04:34:23.414Z,5.50
2023-10-07T04:37:04.041Z,5.05
2023-10-07T04:39:40.180Z,5.82
2023-10-07T04:42:08.768Z,1.63
2023-10-07T04:44:56.059Z,4.13
2023-10-07T04:47:32.040Z,6.10
2023-10-07T04:50:05.872Z,3.70
2023-10-07T04:52:35.119Z,7.65
2023-10-07T04:55:03.086Z,3.28
2023-10-07T04:57:57.983Z,5.45
2023-10-07T05:00:31.075Z,3.40
2023-10-07T05:03:09.765Z,9.30
2023-10-07T05:05:36.937Z,15.80
2023-10-07T05:08:20.849Z,14.55
2023-10-07T05:10:54.253Z,6.72
2023-10-07T05:13:22.824Z,4.15
2023-10-07T05:15:50.063Z,4.82
2023-10-07T05:18:18.817Z,5.22
2023-10-07T05:20:49.556Z,4.57
2023-10-07T05:23:16.774Z,4.47
2023-10-07T05:25:50.732Z,6.05
2023-10-07T05:28:25.150Z,7.25
2023-10-07T05:30:53.316Z,6.45
2023-10-07T05:33:33.450Z,3.78
2023-10-07T05:36:10.349Z,5.45
2023-10-07T05:38:37.985Z,5.90
2023-10-07T05:41:07.676Z,2.97
2023-10-07T05:43:35.873Z,2.47
2023-10-07T05:46:02.926Z,6.65
2023-10-07T05:48:29.886Z,3.10
2023-10-07T05:50:56.990Z,6.18
2023-10-07T05:53:23.940Z,3.60
2023-10-07T05:55:51.729Z,4.80
2023-10-07T05:58:18.671Z,5.38
2023-10-07T06:00:46.954Z,3.78
2023-10-07T06:03:14.669Z,4.03
2023-10-07T06:05:41.673Z,4.47
2023-10-07T06:08:12.190Z,1.90
2023-10-07T06:10:40.018Z,6.53
2023-10-07T06:13:10.015Z,5.65
2023-10-07T06:15:38.591Z,5.70
2023-10-07T06:18:06.565Z,6.38
2023-10-07T06:20:40.131Z,8.52
2023-10-07T06:23:17.866Z,4.57
2023-10-07T06:25:53.148Z,2.92
2023-10-07T06:28:31.813Z,4.97
2023-10-07T06:31:26.574Z,1.80
2023-10-07T06:34:05.073Z,6.25
2023-10-07T06:36:33.572Z,5.95
2023-10-07T06:39:03.049Z,3.67
2023-10-07T06:41:31.482Z,4.72
2023-10-07T06:44:01.346Z,5.45
2023-10-07T06:46:39.684Z,4.95
2023-10-07T06:49:07.781Z,5.22
2023-10-07T06:51:37.951Z,10.63
2023-10-07T06:54:05.711Z,9.23
2023-10-07T06:56:35.355Z,15.00
2023-10-07T06:59:02.476Z,13.15
2023-10-07T07:01:41.001Z,11.55
2023-10-07T07:04:13.224Z,8.75
2023-10-07T07:06:46.239Z,10.90
2023-10-07T07:12:10.671Z,5.38
2023-10-07T07:14:38.973Z,4.63
2023-10-07T07:17:25.518Z,3.60
2023-10-07T07:20:12.068Z,7.07
2023-10-07T07:22:47.197Z,4.05
2023-10-07T07:25:31.708Z,5.95
2023-10-07T07:28:01.783Z,7.13
2023-10-07T07:30:32.538Z,11.20
2023-10-07T07:33:13.635Z,10.20
2023-10-07T07:35:46.441Z,8.85
2023-10-07T07:38:34.022Z,8.43
2023-10-07T07:41:25.078Z,4.30
2023-10-07T07:43:53.368Z,7.18
2023-10-07T07:46:55.912Z,11.90
2023-10-07T07:49:29.513Z,10.55
2023-10-07T07:51:56.976Z,13.75
2023-10-07T07:54:26.344Z,9.90
2023-10-07T07:56:56.236Z,8.05
2023-10-07T07:59:23.887Z,7.68
2023-10-07T08:01:55.517Z,7.95
2023-10-07T08:04:44.368Z,8.65
2023-10-07T08:07:31.214Z,7.45
2023-10-07T08:09:59.968Z,6.20
2023-10-07T08:12:37.655Z,10.18
2023-10-07T08:15:15.771Z,7.63
2023-10-07T08:17:47.258Z,3.08
2023-10-07T08:20:14.769Z,9.85
2023-10-07T08:22:47.975Z,5.43
2023-10-07T08:25:27.763Z,6.90
2023-10-07T08:27:56.705Z,8.98
2023-10-07T08:30:39.087Z,6.53
2023-10-07T08:33:13.899Z,5.20
2023-10-07T08:35:44.644Z,5.18
2023-10-07T08:38:22.949Z,7.90
2023-10-07T08:41:06.376Z,3.58
2023-10-07T08:43:39.543Z,4.57
2023-10-07T08:46:10.824Z,5.68
2023-10-07T08:48:40.314Z,4.47
2023-10-07T08:51:18.944Z,3.90
2023-10-07T08:53:49.224Z,3.92
2023-10-07T08:56:18.610Z,6.57
2023-10-07T08:58:49.460Z,5.57
2023-10-07T09:01:20.872Z,4.55
2023-10-07T09:03:49.403Z,3.60
2023-10-07T09:06:16.461Z,5.00
2023-10-07T09:08:45.159Z,5.50
2023-10-07T09:11:14.449Z,8.30
2023-10-07T09:13:41.958Z,4.88
2023-10-07T09:16:09.784Z,8.20
2023-10-07T09:18:41.399Z,10.57
2023-10-07T09:21:20.682Z,10.68
2023-10-07T09:24:00.338Z,6.65
2023-10-07T09:26:38.982Z,6.18
2023-10-07T09:29:25.732Z,5.13
2023-10-07T09:31:58.036Z,2.92
2023-10-07T09:34:46.531Z,4.57
2023-10-07T09:37:14.802Z,6.40
2023-10-07T09:40:11.438Z,4.88
2023-10-07T09:42:39.252Z,2.92
2023-10-07T09:45:19.377Z,5.03
2023-10-07T09:47:47.007Z,4.90
2023-10-07T09:50:29.166Z,3.67
2023-10-07T09:53:18.843Z,4.65
2023-10-07T09:56:13.305Z,4.03
2023-10-07T09:59:04.488Z,6.63
2023-10-07T10:01:42.761Z,4.15
2023-10-07T10:04:37.865Z,3.25
2023-10-07T10:07:41.004Z,4.70
2023-10-07T10:10:15.980Z,7.95
2023-10-07T10:13:03.199Z,3.90
2023-10-07T10:15:39.753Z,2.28
2023-10-07T10:18:28.791Z,9.18
2023-10-07T10:21:06.132Z,4.00
2023-10-07T10:23:34.488Z,2.90
2023-10-07T10:26:15.643Z,4.10
2023-10-07T10:28:44.961Z,3.85
2023-10-07T10:31:27.148Z,6.82
2023-10-07T10:33:54.400Z,4.30
2023-10-07T10:36:24.302Z,5.13
2023-10-07T10:38:51.480Z,3.92
2023-10-07T10:41:33.495Z,4.47
2023-10-07T10:44:07.917Z,5.35
2023-10-07T10:46:45.840Z,5.05
2023-10-07T10:49:18.119Z,5.78
2023-10-07T10:51:51.889Z,3.77
2023-10-07T10:54:23.174Z,3.05
2023-10-07T10:56:59.644Z,6.80
2023-10-07T10:59:44.563Z,3.30
2023-10-07T11:02:13.231Z,4.97
2023-10-07T11:04:40.463Z,6.13
2023-10-07T11:07:08.877Z,6.85
2023-10-07T11:09:38.740Z,3.58
2023-10-07T11:12:10.807Z,3.83
2023-10-07T11:14:39.875Z,3.57
2023-10-07T11:17:10.474Z,4.78
2023-10-07T11:19:46.235Z,5.05
2023-10-07T11:22:15.322Z,6.65
2023-10-07T11:24:42.369Z,5.95
2023-10-07T11:27:10.286Z,5.22
2023-10-07T11:29:37.705Z,5.13
2023-10-07T11:32:08.594Z,4.07
2023-10-07T11:34:44.943Z,5.30
2023-10-07T11:37:15.379Z,6.00
2023-10-07T11:39:46.435Z,3.60
2023-10-07T11:42:15.811Z,9.75
2023-10-07T11:44:44.118Z,4.43
2023-10-07T11:47:12.491Z,5.07
2023-10-07T11:49:39.513Z,4.50
2023-10-07T11:52:07.126Z,6.57
2023-10-07T11:54:38.702Z,13.15
2023-10-07T11:57:06.656Z,7.72
2023-10-07T11:59:42.525Z,6.20
2023-10-07T12:02:16.624Z,4.25
2023-10-07T12:04:49.261Z,2.92
2023-10-07T12:07:18.134Z,5.18
2023-10-07T12:09:48.884Z,4.55
2023-10-07T12:12:16.795Z,6.05
2023-10-07T12:14:44.337Z,5.00
2023-10-07T12:17:12.930Z,4.35
2023-10-07T12:19:40.652Z,4.88
2023-10-07T12:22:08.282Z,7.22
2023-10-07T12:24:35.980Z,5.15
2023-10-07T12:27:03.394Z,4.32
2023-10-07T12:29:30.544Z,2.92
2023-10-07T12:31:58.569Z,5.03
2023-10-07T12:34:25.556Z,6.70
2023-10-07T12:36:55.420Z,4.47
2023-10-07T12:39:22.968Z,4.80
2023-10-07T12:41:50.543Z,4.20
2023-10-07T12:44:18.292Z,3.10
2023-10-07T12:46:45.312Z,4.50
2023-10-07T12:49:15.468Z,4.13
2023-10-07T12:51:45.307Z,4.38
2023-10-07T12:54:13.054Z,5.75
2023-10-07T12:56:44.510Z,5.38
2023-10-07T12:59:23.003Z,5.97
2023-10-07T13:01:57.712Z,3.97
2023-10-07T13:04:35.987Z,4.85
2023-10-07T13:07:05.323Z,6.07
2023-10-07T13:09:32.431Z,5.38
2023-10-07T13:12:01.125Z,4.35
2023-10-07T13:14:28.733Z,3.60
2023-10-07T13:16:59.881Z,4.65
2023-10-07T13:19:37.261Z,5.50
2023-10-07T13:22:06.704Z,4.45
2023-10-07T13:24:34.130Z,3.72
2023-10-07T13:27:03.439Z,3.97
2023-10-07T13:29:30.519Z,4.95
2023-10-07T13:31:57.534Z,3.38
2023-10-07T13:34:26.005Z,4.80
2023-10-07T13:36:53.006Z,4.15
2023-10-07T13:39:20.022Z,4.65
2023-10-07T13:41:48.783Z,3.72
2023-10-07T13:44:17.944Z,5.07
2023-10-07T13:46:46.783Z,6.07
2023-10-07T13:49:17.532Z,3.90
2023-10-07T13:51:46.681Z,4.20
2023-10-07T13:54:24.408Z,4.30
2023-10-07T13:57:03.972Z,2.97
2023-10-07T13:59:31.103Z,8.65
2023-10-07T14:02:00.295Z,7.60
2023-10-07T14:04:27.586Z,4.55
2023-10-07T14:07:02.344Z,6.90
2023-10-07T14:09:31.153Z,4.85
2023-10-07T14:11:58.556Z,3.53
2023-10-07T14:14:29.137Z,2.95
2023-10-07T14:17:02.192Z,4.85
2023-10-07T14:19:30.315Z,4.05
2023-10-07T14:21:59.071Z,4.03
2023-10-07T14:24:30.902Z,4.75
2023-10-07T14:26:58.286Z,4.40
2023-10-07T14:29:27.951Z,5.57
2023-10-07T14:31:55.668Z,3.90
2023-10-07T14:34:22.996Z,3.80
2023-10-07T14:36:49.998Z,4.88
2023-10-07T14:39:19.431Z,6.18
2023-10-07T14:42:02.653Z,3.95
2023-10-07T14:44:29.693Z,6.68
2023-10-07T14:46:56.792Z,4.72
2023-10-07T14:49:24.911Z,6.07
2023-10-07T14:51:54.004Z,4.85
2023-10-07T14:54:21.038Z,5.32
2023-10-07T14:56:47.969Z,4.65
2023-10-07T14:59:16.697Z,5.57
2023-10-07T15:01:44.575Z,5.30
2023-10-07T15:04:16.510Z,6.40
2023-10-07T15:06:44.478Z,4.82
2023-10-07T15:09:13.168Z,5.13
2023-10-07T15:11:40.264Z,6.15
2023-10-07T15:14:07.356Z,3.75
2023-10-07T15:16:35.621Z,8.93
2023-10-07T15:19:04.364Z,7.93
2023-10-07T15:21:31.314Z,5.72
2023-10-07T15:23:58.297Z,7.18
2023-10-07T15:26:26.319Z,10.98
2023-10-07T15:28:54.536Z,7.82
2023-10-07T15:31:23.825Z,6.07
2023-10-07T15:34:05.729Z,11.13
2023-10-07T15:36:33.356Z,11.27
2023-10-07T15:39:00.340Z,7.63
2023-10-07T15:41:27.374Z,27.90
2023-10-07T15:43:54.439Z,13.57
2023-10-07T15:46:21.624Z,9.15
2023-10-07T15:48:48.942Z,7.53
2023-10-07T15:51:16.745Z,7.88
2023-10-07T15:53:44.737Z,11.20
2023-10-07T15:56:14.440Z,12.02
2023-10-07T15:58:46.074Z,9.30
2023-10-07T16:01:14.324Z,4.95
2023-10-07T16:03:43.650Z,6.55
2023-10-07T16:06:13.711Z,4.47
2023-10-07T16:08:40.916Z,7.22
2023-10-07T16:11:09.936Z,5.18
2023-10-07T16:13:37.259Z,6.13
2023-10-07T16:16:08.857Z,5.75
2023-10-07T16:18:41.526Z,7.68
2023-10-07T16:21:21.570Z,6.47
2023-10-07T16:23:48.856Z,8.23
2023-10-07T16:26:16.167Z,13.40
2023-10-07T16:28:49.868Z,8.20
2023-10-07T16:31:18.949Z,9.35
2023-10-07T16:33:45.941Z,7.15
2023-10-07T16:36:14.018Z,8.32
2023-10-07T16:38:44.356Z,4.60
2023-10-07T16:41:18.340Z,6.35
2023-10-07T16:43:47.109Z,9.02
2023-10-07T16:46:15.661Z,6.10
2023-10-07T16:48:44.240Z,7.43
2023-10-07T16:51:13.145Z,7.50
2023-10-07T16:53:42.935Z,7.07
2023-10-07T16:56:15.523Z,7.00
2023-10-07T16:58:44.430Z,5.80
2023-10-07T17:01:14.008Z,5.85
2023-10-07T17:03:41.249Z,7.53
2023-10-07T17:06:10.159Z,6.80
2023-10-07T17:08:38.379Z,8.80
2023-10-07T17:11:05.823Z,6.72
2023-10-07T17:13:33.029Z,8.77
2023-10-07T17:16:00.836Z,7.57
2023-10-07T17:18:28.792Z,9.77
2023-10-07T17:21:00.294Z,7.72
2023-10-07T17:23:28.523Z,5.88
2023-10-07T17:25:56.344Z,10.65
2023-10-07T17:28:24.024Z,9.63
2023-10-07T17:30:51.495Z,16.42
2023-10-07T17:33:22.380Z,20.23
2023-10-07T17:35:49.861Z,20.38
2023-10-07T17:38:17.237Z,20.85
2023-10-07T17:40:44.323Z,19.40
2023-10-07T17:43:11.792Z,18.00
2023-10-07T17:45:40.873Z,15.30
2023-10-07T17:48:08.297Z,8.38
2023-10-07T17:50:36.596Z,12.77
2023-10-07T17:53:07.242Z,9.07
2023-10-07T17:55:35.126Z,9.77
2023-10-07T17:58:02.062Z,10.30
2023-10-07T18:00:30.803Z,8.27
2023-10-07T18:02:59.714Z,4.75
2023-10-07T18:05:28.141Z,3.28
2023-10-07T18:07:55.691Z,6.60
2023-10-07T18:10:26.546Z,9.02
2023-10-07T18:12:54.353Z,7.35
2023-10-07T18:15:21.587Z,6.22
2023-10-07T18:17:49.967Z,7.05
2023-10-07T18:20:17.545Z,5.22
2023-10-07T18:22:53.070Z,6.78
2023-10-07T18:25:22.433Z,3.33
2023-10-07T18:27:49.799Z,4.07
2023-10-07T18:30:16.884Z,6.68
2023-10-07T18:32:44.172Z,3.65
2023-10-07T18:35:11.769Z,4.25
2023-10-07T18:37:38.972Z,4.47
2023-10-07T18:40:08.560Z,7.22
2023-10-07T18:42:36.599Z,5.80
2023-10-07T18:45:05.908Z,4.72
2023-10-07T18:47:33.739Z,6.80
2023-10-07T18:50:01.259Z,8.05
2023-10-07T18:52:29.765Z,14.48
2023-10-07T18:54:57.126Z,4.70
2023-10-07T18:57:24.277Z,5.03
2023-10-07T18:59:51.375Z,4.30
2023-10-07T19:02:20.760Z,6.57
2023-10-07T19:04:48.818Z,5.38
2023-10-07T19:07:16.576Z,5.40
2023-10-07T19:09:43.928Z,5.78
2023-10-07T19:12:13.631Z,5.72
2023-10-07T19:14:40.830Z,7.50
2023-10-07T19:17:07.826Z,4.28
2023-10-07T19:19:35.355Z,3.58
2023-10-07T19:22:02.906Z,4.13
2023-10-07T19:24:32.479Z,4.25
2023-10-07T19:27:02.512Z,4.13
2023-10-07T19:29:29.641Z,5.85
2023-10-07T19:31:56.628Z,4.68
2023-10-07T19:34:24.119Z,6.25
2023-10-07T19:36:51.128Z,3.20
2023-10-07T19:39:35.804Z,5.90
2023-10-07T19:42:05.579Z,4.00
2023-10-07T19:44:32.778Z,11.02
2023-10-07T19:46:59.885Z,7.30
2023-10-07T19:49:26.949Z,4.22
2023-10-07T19:51:53.929Z,3.55
2023-10-07T19:54:23.357Z,3.47
2023-10-07T19:56:50.475Z,5.80
2023-10-07T19:59:17.580Z,4.57
2023-10-07T20:01:44.616Z,3.60
2023-10-07T20:04:11.783Z,4.15
2023-10-07T20:06:39.598Z,6.43
2023-10-07T20:09:06.557Z,4.47
2023-10-07T20:11:33.837Z,7.47
2023-10-07T20:14:02.176Z,13.75
2023-10-07T20:16:29.613Z,9.70
2023-10-07T20:18:58.649Z,11.13
2023-10-07T20:21:25.759Z,21.63
2023-10-07T20:23:52.997Z,25.27
2023-10-07T20:26:21.926Z,12.63
2023-10-07T20:28:49.055Z,9.63
2023-10-07T20:31:17.779Z,6.65
2023-10-07T20:33:45.212Z,2.85
2023-10-07T20:36:13.968Z,5.07
2023-10-07T20:38:42.075Z,6.72
2023-10-07T20:41:10.349Z,5.20
2023-10-07T20:43:37.601Z,7.53
2023-10-07T20:46:05.733Z,5.47
2023-10-07T20:48:34.019Z,4.95
2023-10-07T20:51:17.973Z,4.40
2023-10-07T20:53:47.817Z,4.18
2023-10-07T20:56:22.037Z,6.13
2023-10-07T20:58:49.183Z,5.70
2023-10-07T21:01:21.954Z,3.85
2023-10-07T21:03:52.071Z,5.18
2023-10-07T21:06:21.503Z,6.53
2023-10-07T21:08:51.155Z,3.88
2023-10-07T21:11:24.149Z,5.65
2023-10-07T21:16:19.949Z,6.75
2023-10-07T21:18:46.979Z,7.25
2023-10-07T21:21:14.956Z,5.97
2023-10-07T21:23:44.284Z,7.78
2023-10-07T21:26:23.654Z,6.03
2023-10-07T21:28:55.967Z,7.28
2023-10-07T21:31:27.088Z,5.73
2023-10-07T21:33:54.248Z,3.55
2023-10-07T21:36:21.362Z,4.57
2023-10-07T21:38:48.388Z,5.53
2023-10-07T21:41:15.854Z,7.55
2023-10-07T21:43:43.775Z,6.68
2023-10-07T21:46:13.552Z,6.07
2023-10-07T21:48:40.765Z,5.53
2023-10-07T21:51:10.106Z,4.30
2023-10-07T21:53:37.625Z,8.50
2023-10-07T21:56:06.914Z,5.30
2023-10-07T21:58:33.953Z,8.98
2023-10-07T22:01:09.728Z,5.95
2023-10-07T22:03:41.156Z,3.95
2023-10-07T22:06:08.336Z,4.97
2023-10-07T22:08:36.228Z,5.32
2023-10-07T22:11:03.313Z,5.38
2023-10-07T22:13:30.438Z,6.88
2023-10-07T22:15:58.778Z,6.13
2023-10-07T22:18:28.287Z,4.97
2023-10-07T22:20:56.752Z,8.32
2023-10-07T22:23:24.952Z,6.28
2023-10-07T22:25:53.749Z,5.80
2023-10-07T22:28:22.782Z,4.78
2023-10-07T22:30:52.359Z,5.28
2023-10-07T22:33:22.400Z,7.22
2023-10-07T22:35:50.756Z,6.20
2023-10-07T22:38:19.485Z,10.15
2023-10-07T22:40:51.811Z,6.55
2023-10-07T22:43:19.617Z,5.23
2023-10-07T22:45:52.602Z,6.47
2023-10-07T22:51:10.833Z,9.10
2023-10-07T22:53:51.251Z,5.65
2023-10-07T22:56:21.229Z,6.65
2023-10-07T22:58:50.100Z,9.80
2023-10-07T23:01:41.012Z,6.32
2023-10-07T23:04:15.484Z,8.00
2023-10-07T23:07:04.310Z,6.05
2023-10-07T23:09:48.300Z,4.93
2023-10-07T23:12:17.795Z,5.45
2023-10-07T23:14:48.094Z,5.13
2023-10-07T23:17:27.923Z,9.25
2023-10-07T23:20:08.619Z,7.70
2023-10-07T23:22:40.827Z,4.07
2023-10-07T23:25:22.992Z,6.75
2023-10-07T23:27:52.821Z,4.85
2023-10-07T23:30:29.936Z,5.55
2023-10-07T23:33:03.260Z,5.18
2023-10-07T23:35:42.429Z,5.07
2023-10-07T23:38:10.963Z,5.15
2023-10-07T23:40:38.861Z,5.68
2023-10-07T23:43:11.513Z,5.82
2023-10-07T23:48:20.345Z,4.70
2023-10-07T23:50:56.256Z,6.40
2023-10-07T23:53:23.695Z,5.72
2023-10-07T23:56:05.599Z,8.02
2023-10-07T23:58:35.449Z,6.68
